5NC0 weather

Carolina Kidney Heliport
Goldsboro, North Carolina, United States

Public forecast

Using degrees Fahrenheit for public forecast. Weather courtesy of forecast.io.

METAR (pilot weather report)

Closest report is Goldsboro-Wayne Municipal Airport, 3.6 nm (6.7 km) NNW. Retrieved 2019/06/18 18:25 UTC (0 seconds ago):

KGWW 181825Z AUTO 20007KT 180V240 10SM SCT047 SCT060 SCT080 32/22 A2999 RMK AO2 T03190222

TAF (pilot weather forecast)

Closest forecast is Seymour Johnson Air Force Base, 3.8 nm (7.0 km) S. Retrieved 2019/06/18 12:18 UTC (6 hours ago):

TAF KGSB 181210Z 1812/1918 22009KT 9999 FEW010 FEW250 QNH3000INS BECMG 1814/1815 23010G15KT 9999 FEW050 SCT250 QNH2995INS BECMG 1817/1818 21012G18KT 9999 VCSH SCT050 SCT250 QNH2991INS TEMPO 1820/1824 23012G22KT 8000 -TSRA BKN040CB BECMG 1901/1902 18009KT 9999 NSW FEW020 SCT120 QNH2989INS BECMG 1904/1905 17006KT 9999 BKN020 BKN120 QNH2983INS BECMG 1914/1915 25005KT 9999 SCT020 SCT120 QNH2977INS TX33/1820Z TN23/1910Z